sensor_id;sensor_type;location;lat;lon;timestamp;temperature;humidity
3994;DHT22;2011;48.238;13.948;2023-05-03T00:00:32;11.60;99.90
3994;DHT22;2011;48.238;13.948;2023-05-03T00:02:59;11.60;99.90
3994;DHT22;2011;48.238;13.948;2023-05-03T00:05:29;11.60;99.90
3994;DHT22;2011;48.238;13.948;2023-05-03T00:07:56;11.60;99.90
3994;DHT22;2011;48.238;13.948;2023-05-03T00:10:23;11.60;99.90
3994;DHT22;2011;48.238;13.948;2023-05-03T00:12:50;11.60;99.90
3994;DHT22;2011;48.238;13.948;2023-05-03T00:15:19;11.60;99.90
3994;DHT22;2011;48.238;13.948;2023-05-03T00:17:46;11.60;99.90
3994;DHT22;2011;48.238;13.948;2023-05-03T00:20:13;11.60;99.90
3994;DHT22;2011;48.238;13.948;2023-05-03T00:22:40;11.60;99.90
3994;DHT22;2011;48.238;13.948;2023-05-03T00:25:07;11.60;99.90
3994;DHT22;2011;48.238;13.948;2023-05-03T00:27:34;11.60;99.90
3994;DHT22;2011;48.238;13.948;2023-05-03T00:30:02;11.50;99.90
3994;DHT22;2011;48.238;13.948;2023-05-03T00:32:30;11.50;99.90
3994;DHT22;2011;48.238;13.948;2023-05-03T00:34:57;11.50;99.90
3994;DHT22;2011;48.238;13.948;2023-05-03T00:37:24;11.50;99.90
3994;DHT22;2011;48.238;13.948;2023-05-03T00:39:52;11.50;99.90
3994;DHT22;2011;48.238;13.948;2023-05-03T00:42:19;11.60;99.90
3994;DHT22;2011;48.238;13.948;2023-05-03T00:44:46;11.50;99.90
3994;DHT22;2011;48.238;13.948;2023-05-03T00:47:15;11.50;99.90
3994;DHT22;2011;48.238;13.948;2023-05-03T00:49:43;11.50;99.90
3994;DHT22;2011;48.238;13.948;2023-05-03T00:52:10;11.50;99.90
3994;DHT22;2011;48.238;13.948;2023-05-03T00:54:38;11.50;99.90
3994;DHT22;2011;48.238;13.948;2023-05-03T00:57:05;11.50;99.90
3994;DHT22;2011;48.238;13.948;2023-05-03T00:59:33;11.50;99.90
3994;DHT22;2011;48.238;13.948;2023-05-03T01:02:00;11.50;99.90
3994;DHT22;2011;48.238;13.948;2023-05-03T01:04:27;11.50;99.90
3994;DHT22;2011;48.238;13.948;2023-05-03T01:07:02;11.50;99.90
3994;DHT22;2011;48.238;13.948;2023-05-03T01:09:35;11.50;99.90
3994;DHT22;2011;48.238;13.948;2023-05-03T01:12:16;11.50;99.90
3994;DHT22;2011;48.238;13.948;2023-05-03T01:14:53;11.40;99.90
3994;DHT22;2011;48.238;13.948;2023-05-03T01:17:27;11.40;99.90
3994;DHT22;2011;48.238;13.948;2023-05-03T01:19:57;11.50;99.90
3994;DHT22;2011;48.238;13.948;2023-05-03T01:22:31;11.50;99.90
3994;DHT22;2011;48.238;13.948;2023-05-03T01:25:06;11.40;99.90
3994;DHT22;2011;48.238;13.948;2023-05-03T01:27:34;11.50;99.90
3994;DHT22;2011;48.238;13.948;2023-05-03T01:30:03;11.50;99.90
3994;DHT22;2011;48.238;13.948;2023-05-03T01:32:35;11.50;99.90
3994;DHT22;2011;48.238;13.948;2023-05-03T01:35:10;11.50;99.90
3994;DHT22;2011;48.238;13.948;2023-05-03T01:37:38;11.50;99.90
3994;DHT22;2011;48.238;13.948;2023-05-03T01:40:08;11.50;99.90
3994;DHT22;2011;48.238;13.948;2023-05-03T01:42:38;11.50;99.90
3994;DHT22;2011;48.238;13.948;2023-05-03T01:45:06;11.50;99.90
3994;DHT22;2011;48.238;13.948;2023-05-03T01:47:33;11.50;99.90
3994;DHT22;2011;48.238;13.948;2023-05-03T01:50:00;11.50;99.90
3994;DHT22;2011;48.238;13.948;2023-05-03T01:52:27;11.50;99.90
3994;DHT22;2011;48.238;13.948;2023-05-03T01:54:54;11.50;99.90
3994;DHT22;2011;48.238;13.948;2023-05-03T01:57:23;11.50;99.90
3994;DHT22;2011;48.238;13.948;2023-05-03T01:59:50;11.50;99.90
3994;DHT22;2011;48.238;13.948;2023-05-03T02:02:17;11.50;99.90
3994;DHT22;2011;48.238;13.948;2023-05-03T02:04:44;11.50;99.90
3994;DHT22;2011;48.238;13.948;2023-05-03T02:07:11;11.50;99.90
3994;DHT22;2011;48.238;13.948;2023-05-03T02:09:38;11.60;99.90
3994;DHT22;2011;48.238;13.948;2023-05-03T02:12:06;11.60;99.90
3994;DHT22;2011;48.238;13.948;2023-05-03T02:14:35;11.60;99.90
3994;DHT22;2011;48.238;13.948;2023-05-03T02:17:02;11.60;99.90
3994;DHT22;2011;48.238;13.948;2023-05-03T02:19:32;11.60;99.90
3994;DHT22;2011;48.238;13.948;2023-05-03T02:21:59;11.60;99.90
3994;DHT22;2011;48.238;13.948;2023-05-03T02:24:26;11.60;99.90
3994;DHT22;2011;48.238;13.948;2023-05-03T02:26:54;11.60;99.90
3994;DHT22;2011;48.238;13.948;2023-05-03T02:29:21;11.60;99.90
3994;DHT22;2011;48.238;13.948;2023-05-03T02:31:50;11.60;99.90
3994;DHT22;2011;48.238;13.948;2023-05-03T02:34:16;11.60;99.90
3994;DHT22;2011;48.238;13.948;2023-05-03T02:36:43;11.50;99.90
3994;DHT22;2011;48.238;13.948;2023-05-03T02:39:11;11.40;99.90
3994;DHT22;2011;48.238;13.948;2023-05-03T02:41:38;11.20;99.90
3994;DHT22;2011;48.238;13.948;2023-05-03T02:44:05;11.20;99.90
3994;DHT22;2011;48.238;13.948;2023-05-03T02:46:32;11.10;99.90
3994;DHT22;2011;48.238;13.948;2023-05-03T02:49:00;11.00;99.90
3994;DHT22;2011;48.238;13.948;2023-05-03T02:51:27;11.00;99.90
3994;DHT22;2011;48.238;13.948;2023-05-03T02:53:54;10.90;99.90
3994;DHT22;2011;48.238;13.948;2023-05-03T02:56:21;10.90;99.90
3994;DHT22;2011;48.238;13.948;2023-05-03T02:58:50;10.90;99.90
3994;DHT22;2011;48.238;13.948;2023-05-03T03:01:17;10.90;99.90
3994;DHT22;2011;48.238;13.948;2023-05-03T03:03:44;10.90;99.90
3994;DHT22;2011;48.238;13.948;2023-05-03T03:06:12;10.80;99.90
3994;DHT22;2011;48.238;13.948;2023-05-03T03:08:40;10.80;99.90
3994;DHT22;2011;48.238;13.948;2023-05-03T03:11:07;10.80;99.90
3994;DHT22;2011;48.238;13.948;2023-05-03T03:13:34;10.80;99.90
3994;DHT22;2011;48.238;13.948;2023-05-03T03:16:04;10.80;99.90
3994;DHT22;2011;48.238;13.948;2023-05-03T03:18:31;10.80;99.90
3994;DHT22;2011;48.238;13.948;2023-05-03T03:20:59;10.80;99.90
3994;DHT22;2011;48.238;13.948;2023-05-03T03:23:28;10.90;99.90
3994;DHT22;2011;48.238;13.948;2023-05-03T03:25:55;11.00;99.90
3994;DHT22;2011;48.238;13.948;2023-05-03T03:28:22;11.00;99.90
3994;DHT22;2011;48.238;13.948;2023-05-03T03:30:49;11.00;99.90
3994;DHT22;2011;48.238;13.948;2023-05-03T03:33:16;11.10;99.90
3994;DHT22;2011;48.238;13.948;2023-05-03T03:35:43;11.20;99.90
3994;DHT22;2011;48.238;13.948;2023-05-03T03:38:10;11.20;99.90
3994;DHT22;2011;48.238;13.948;2023-05-03T03:40:39;11.20;99.90
3994;DHT22;2011;48.238;13.948;2023-05-03T03:43:06;11.30;99.90
3994;DHT22;2011;48.238;13.948;2023-05-03T03:45:33;11.30;99.90
3994;DHT22;2011;48.238;13.948;2023-05-03T03:48:00;11.30;99.90
3994;DHT22;2011;48.238;13.948;2023-05-03T03:50:27;11.30;99.90
3994;DHT22;2011;48.238;13.948;2023-05-03T03:52:54;11.30;99.90
3994;DHT22;2011;48.238;13.948;2023-05-03T03:55:21;11.20;99.90
3994;DHT22;2011;48.238;13.948;2023-05-03T03:57:49;11.20;99.90
3994;DHT22;2011;48.238;13.948;2023-05-03T04:00:17;11.10;99.90
3994;DHT22;2011;48.238;13.948;2023-05-03T04:02:43;11.00;99.90
3994;DHT22;2011;48.238;13.948;2023-05-03T04:05:10;11.00;99.90
3994;DHT22;2011;48.238;13.948;2023-05-03T04:07:37;11.00;99.90
3994;DHT22;2011;48.238;13.948;2023-05-03T04:10:05;11.00;99.90
3994;DHT22;2011;48.238;13.948;2023-05-03T04:12:32;11.00;99.90
3994;DHT22;2011;48.238;13.948;2023-05-03T04:15:01;11.10;99.90
3994;DHT22;2011;48.238;13.948;2023-05-03T04:17:27;11.20;99.90
3994;DHT22;2011;48.238;13.948;2023-05-03T04:19:55;11.20;99.90
3994;DHT22;2011;48.238;13.948;2023-05-03T04:22:22;11.30;99.90
3994;DHT22;2011;48.238;13.948;2023-05-03T04:24:49;11.40;99.90
3994;DHT22;2011;48.238;13.948;2023-05-03T04:27:16;11.40;99.90
3994;DHT22;2011;48.238;13.948;2023-05-03T04:29:43;11.40;99.90
3994;DHT22;2011;48.238;13.948;2023-05-03T04:32:11;11.40;99.90
3994;DHT22;2011;48.238;13.948;2023-05-03T04:34:39;11.50;99.90
3994;DHT22;2011;48.238;13.948;2023-05-03T04:37:07;11.50;99.90
3994;DHT22;2011;48.238;13.948;2023-05-03T04:39:34;11.50;99.90
3994;DHT22;2011;48.238;13.948;2023-05-03T04:42:01;11.60;99.90
3994;DHT22;2011;48.238;13.948;2023-05-03T04:44:28;11.60;99.90
3994;DHT22;2011;48.238;13.948;2023-05-03T04:46:55;11.60;99.90
3994;DHT22;2011;48.238;13.948;2023-05-03T04:49:23;11.60;99.90
3994;DHT22;2011;48.238;13.948;2023-05-03T04:51:50;11.60;99.90
3994;DHT22;2011;48.238;13.948;2023-05-03T04:54:17;11.70;99.90
3994;DHT22;2011;48.238;13.948;2023-05-03T04:56:44;11.70;99.90
3994;DHT22;2011;48.238;13.948;2023-05-03T04:59:11;11.80;99.90
3994;DHT22;2011;48.238;13.948;2023-05-03T05:01:38;11.80;99.90
3994;DHT22;2011;48.238;13.948;2023-05-03T05:04:05;11.80;99.90
3994;DHT22;2011;48.238;13.948;2023-05-03T05:06:33;11.80;99.90
3994;DHT22;2011;48.238;13.948;2023-05-03T05:09:00;11.90;99.90
3994;DHT22;2011;48.238;13.948;2023-05-03T05:11:29;11.90;99.90
3994;DHT22;2011;48.238;13.948;2023-05-03T05:13:56;12.00;99.90
3994;DHT22;2011;48.238;13.948;2023-05-03T05:16:24;11.90;99.90
3994;DHT22;2011;48.238;13.948;2023-05-03T05:18:51;12.00;99.90
3994;DHT22;2011;48.238;13.948;2023-05-03T05:21:18;12.00;99.90
3994;DHT22;2011;48.238;13.948;2023-05-03T05:23:46;12.10;99.90
3994;DHT22;2011;48.238;13.948;2023-05-03T05:26:13;12.10;99.90
3994;DHT22;2011;48.238;13.948;2023-05-03T05:28:40;12.20;99.90
3994;DHT22;2011;48.238;13.948;2023-05-03T05:31:07;12.20;99.90
3994;DHT22;2011;48.238;13.948;2023-05-03T05:33:34;12.30;99.90
3994;DHT22;2011;48.238;13.948;2023-05-03T05:36:02;12.40;99.90
3994;DHT22;2011;48.238;13.948;2023-05-03T05:38:29;12.40;99.90
3994;DHT22;2011;48.238;13.948;2023-05-03T05:40:57;12.50;99.90
3994;DHT22;2011;48.238;13.948;2023-05-03T05:43:24;12.50;99.90
3994;DHT22;2011;48.238;13.948;2023-05-03T05:45:51;12.60;99.90
3994;DHT22;2011;48.238;13.948;2023-05-03T05:48:18;12.60;99.90
3994;DHT22;2011;48.238;13.948;2023-05-03T05:50:45;12.60;99.90
3994;DHT22;2011;48.238;13.948;2023-05-03T05:53:13;12.70;99.90
3994;DHT22;2011;48.238;13.948;2023-05-03T05:55:40;12.70;99.90
3994;DHT22;2011;48.238;13.948;2023-05-03T05:58:08;12.70;99.90
3994;DHT22;2011;48.238;13.948;2023-05-03T06:00:37;12.80;99.90
3994;DHT22;2011;48.238;13.948;2023-05-03T06:03:04;12.80;99.90
3994;DHT22;2011;48.238;13.948;2023-05-03T06:05:31;12.80;99.90
3994;DHT22;2011;48.238;13.948;2023-05-03T06:07:58;12.90;99.90
3994;DHT22;2011;48.238;13.948;2023-05-03T06:10:25;12.90;99.90
3994;DHT22;2011;48.238;13.948;2023-05-03T06:12:52;12.90;99.90
3994;DHT22;2011;48.238;13.948;2023-05-03T06:15:21;12.90;99.90
3994;DHT22;2011;48.238;13.948;2023-05-03T06:17:48;12.90;99.90
3994;DHT22;2011;48.238;13.948;2023-05-03T06:20:15;12.90;99.90
3994;DHT22;2011;48.238;13.948;2023-05-03T06:22:42;12.90;99.90
3994;DHT22;2011;48.238;13.948;2023-05-03T06:25:09;12.90;99.90
3994;DHT22;2011;48.238;13.948;2023-05-03T06:27:38;12.90;99.90
3994;DHT22;2011;48.238;13.948;2023-05-03T06:30:07;12.90;99.90
3994;DHT22;2011;48.238;13.948;2023-05-03T06:32:37;12.90;99.90
3994;DHT22;2011;48.238;13.948;2023-05-03T06:35:05;13.00;99.90
3994;DHT22;2011;48.238;13.948;2023-05-03T06:37:32;13.00;99.90
3994;DHT22;2011;48.238;13.948;2023-05-03T06:39:59;13.00;99.90
3994;DHT22;2011;48.238;13.948;2023-05-03T06:42:26;13.00;99.90
3994;DHT22;2011;48.238;13.948;2023-05-03T06:44:53;13.10;99.90
3994;DHT22;2011;48.238;13.948;2023-05-03T06:47:20;13.20;99.90
3994;DHT22;2011;48.238;13.948;2023-05-03T06:49:48;13.10;99.90
3994;DHT22;2011;48.238;13.948;2023-05-03T06:52:15;13.10;99.90
3994;DHT22;2011;48.238;13.948;2023-05-03T06:54:42;13.10;99.90
3994;DHT22;2011;48.238;13.948;2023-05-03T06:57:09;13.20;99.90
3994;DHT22;2011;48.238;13.948;2023-05-03T06:59:36;13.30;99.90
3994;DHT22;2011;48.238;13.948;2023-05-03T07:02:04;13.40;99.90
3994;DHT22;2011;48.238;13.948;2023-05-03T07:04:31;13.50;99.90
3994;DHT22;2011;48.238;13.948;2023-05-03T07:06:59;13.60;99.90
3994;DHT22;2011;48.238;13.948;2023-05-03T07:09:26;13.50;99.90
3994;DHT22;2011;48.238;13.948;2023-05-03T07:11:53;13.50;99.90
3994;DHT22;2011;48.238;13.948;2023-05-03T07:14:20;13.50;99.90
3994;DHT22;2011;48.238;13.948;2023-05-03T07:16:47;13.50;99.90
3994;DHT22;2011;48.238;13.948;2023-05-03T07:19:14;13.60;99.90
3994;DHT22;2011;48.238;13.948;2023-05-03T07:21:41;13.70;99.90
3994;DHT22;2011;48.238;13.948;2023-05-03T07:24:10;13.70;99.90
3994;DHT22;2011;48.238;13.948;2023-05-03T07:26:37;13.70;99.90
3994;DHT22;2011;48.238;13.948;2023-05-03T07:29:04;13.80;99.90
3994;DHT22;2011;48.238;13.948;2023-05-03T07:31:31;13.80;99.90
3994;DHT22;2011;48.238;13.948;2023-05-03T07:33:58;13.80;99.90
3994;DHT22;2011;48.238;13.948;2023-05-03T07:36:25;14.10;99.90
3994;DHT22;2011;48.238;13.948;2023-05-03T07:38:52;14.40;99.90
3994;DHT22;2011;48.238;13.948;2023-05-03T07:41:20;14.50;99.90
3994;DHT22;2011;48.238;13.948;2023-05-03T07:43:47;14.60;99.90
3994;DHT22;2011;48.238;13.948;2023-05-03T07:46:14;14.80;99.90
3994;DHT22;2011;48.238;13.948;2023-05-03T07:48:41;14.80;99.90
3994;DHT22;2011;48.238;13.948;2023-05-03T07:51:08;14.80;99.90
3994;DHT22;2011;48.238;13.948;2023-05-03T07:53:35;14.80;99.90
3994;DHT22;2011;48.238;13.948;2023-05-03T07:56:05;14.80;99.90
3994;DHT22;2011;48.238;13.948;2023-05-03T07:58:35;14.80;99.90
3994;DHT22;2011;48.238;13.948;2023-05-03T08:01:03;14.80;99.90
3994;DHT22;2011;48.238;13.948;2023-05-03T08:03:30;14.90;99.90
3994;DHT22;2011;48.238;13.948;2023-05-03T08:05:57;15.00;99.90
3994;DHT22;2011;48.238;13.948;2023-05-03T08:08:24;15.20;99.90
3994;DHT22;2011;48.238;13.948;2023-05-03T08:10:52;15.40;99.90
3994;DHT22;2011;48.238;13.948;2023-05-03T08:13:19;15.50;99.90
3994;DHT22;2011;48.238;13.948;2023-05-03T08:15:49;15.60;99.90
3994;DHT22;2011;48.238;13.948;2023-05-03T08:18:16;15.60;99.90
3994;DHT22;2011;48.238;13.948;2023-05-03T08:20:43;15.60;99.90
3994;DHT22;2011;48.238;13.948;2023-05-03T08:23:11;15.60;99.90
3994;DHT22;2011;48.238;13.948;2023-05-03T08:25:38;15.50;99.90
3994;DHT22;2011;48.238;13.948;2023-05-03T08:28:05;15.50;99.90
3994;DHT22;2011;48.238;13.948;2023-05-03T08:30:33;15.50;99.90
3994;DHT22;2011;48.238;13.948;2023-05-03T08:33:01;15.40;99.90
3994;DHT22;2011;48.238;13.948;2023-05-03T08:35:29;15.30;99.90
3994;DHT22;2011;48.238;13.948;2023-05-03T08:37:56;15.20;99.90
3994;DHT22;2011;48.238;13.948;2023-05-03T08:40:26;15.20;99.90
3994;DHT22;2011;48.238;13.948;2023-05-03T08:42:54;15.10;99.90
3994;DHT22;2011;48.238;13.948;2023-05-03T08:45:22;14.90;99.90
3994;DHT22;2011;48.238;13.948;2023-05-03T08:47:53;14.70;99.90
3994;DHT22;2011;48.238;13.948;2023-05-03T08:50:21;14.60;99.90
3994;DHT22;2011;48.238;13.948;2023-05-03T08:52:50;14.60;99.90
3994;DHT22;2011;48.238;13.948;2023-05-03T08:55:17;14.60;99.90
3994;DHT22;2011;48.238;13.948;2023-05-03T08:57:44;14.70;99.90
3994;DHT22;2011;48.238;13.948;2023-05-03T09:00:11;14.70;99.90
3994;DHT22;2011;48.238;13.948;2023-05-03T09:02:39;14.70;99.90
3994;DHT22;2011;48.238;13.948;2023-05-03T09:05:34;14.80;99.90
3994;DHT22;2011;48.238;13.948;2023-05-03T09:08:04;15.00;99.90
3994;DHT22;2011;48.238;13.948;2023-05-03T09:10:33;15.20;99.90
3994;DHT22;2011;48.238;13.948;2023-05-03T09:13:02;15.20;99.90
3994;DHT22;2011;48.238;13.948;2023-05-03T09:15:29;15.40;99.90
3994;DHT22;2011;48.238;13.948;2023-05-03T09:18:11;15.40;99.90
3994;DHT22;2011;48.238;13.948;2023-05-03T09:20:42;15.50;99.90
3994;DHT22;2011;48.238;13.948;2023-05-03T09:23:16;15.70;99.90
3994;DHT22;2011;48.238;13.948;2023-05-03T09:25:46;15.90;99.90
3994;DHT22;2011;48.238;13.948;2023-05-03T09:28:13;15.90;99.90
3994;DHT22;2011;48.238;13.948;2023-05-03T09:30:41;15.90;99.90
3994;DHT22;2011;48.238;13.948;2023-05-03T09:33:09;16.00;99.90
3994;DHT22;2011;48.238;13.948;2023-05-03T09:35:36;16.00;99.90
3994;DHT22;2011;48.238;13.948;2023-05-03T09:38:04;16.10;99.90
3994;DHT22;2011;48.238;13.948;2023-05-03T09:40:31;16.20;99.90
3994;DHT22;2011;48.238;13.948;2023-05-03T09:43:05;16.10;99.90
3994;DHT22;2011;48.238;13.948;2023-05-03T09:45:34;16.00;99.90
3994;DHT22;2011;48.238;13.948;2023-05-03T09:48:02;16.10;99.90
3994;DHT22;2011;48.238;13.948;2023-05-03T09:50:31;16.20;99.90
3994;DHT22;2011;48.238;13.948;2023-05-03T09:53:01;16.40;99.90
3994;DHT22;2011;48.238;13.948;2023-05-03T09:55:32;16.40;99.90
3994;DHT22;2011;48.238;13.948;2023-05-03T09:58:00;16.50;99.90
3994;DHT22;2011;48.238;13.948;2023-05-03T10:00:29;16.50;99.90
3994;DHT22;2011;48.238;13.948;2023-05-03T10:02:56;16.60;99.90
3994;DHT22;2011;48.238;13.948;2023-05-03T10:05:30;16.60;99.90
3994;DHT22;2011;48.238;13.948;2023-05-03T10:08:00;16.70;99.90
3994;DHT22;2011;48.238;13.948;2023-05-03T10:10:31;16.80;99.90
3994;DHT22;2011;48.238;13.948;2023-05-03T10:13:00;16.90;99.90
3994;DHT22;2011;48.238;13.948;2023-05-03T10:15:29;17.00;99.90
3994;DHT22;2011;48.238;13.948;2023-05-03T10:17:58;16.80;99.90
3994;DHT22;2011;48.238;13.948;2023-05-03T10:20:34;17.20;99.90
3994;DHT22;2011;48.238;13.948;2023-05-03T10:23:09;17.40;99.90
3994;DHT22;2011;48.238;13.948;2023-05-03T10:25:39;17.50;99.90
3994;DHT22;2011;48.238;13.948;2023-05-03T10:28:07;17.50;99.90
3994;DHT22;2011;48.238;13.948;2023-05-03T10:30:35;17.60;99.90
3994;DHT22;2011;48.238;13.948;2023-05-03T10:33:29;17.50;99.30
3994;DHT22;2011;48.238;13.948;2023-05-03T10:35:57;17.50;99.70
3994;DHT22;2011;48.238;13.948;2023-05-03T10:38:27;17.50;99.50
3994;DHT22;2011;48.238;13.948;2023-05-03T10:40:56;17.60;99.90
3994;DHT22;2011;48.238;13.948;2023-05-03T10:43:42;17.90;99.90
3994;DHT22;2011;48.238;13.948;2023-05-03T10:46:30;18.20;99.90
3994;DHT22;2011;48.238;13.948;2023-05-03T10:49:19;18.20;98.90
3994;DHT22;2011;48.238;13.948;2023-05-03T10:51:47;18.10;99.00
3994;DHT22;2011;48.238;13.948;2023-05-03T10:54:14;18.10;99.40
3994;DHT22;2011;48.238;13.948;2023-05-03T10:56:51;18.00;99.30
3994;DHT22;2011;48.238;13.948;2023-05-03T10:59:19;17.90;98.60
3994;DHT22;2011;48.238;13.948;2023-05-03T11:01:48;17.80;99.00
3994;DHT22;2011;48.238;13.948;2023-05-03T11:04:24;17.80;99.30
3994;DHT22;2011;48.238;13.948;2023-05-03T11:06:53;17.80;99.80
3994;DHT22;2011;48.238;13.948;2023-05-03T11:09:30;17.80;99.50
3994;DHT22;2011;48.238;13.948;2023-05-03T11:12:03;18.00;99.40
3994;DHT22;2011;48.238;13.948;2023-05-03T11:14:30;18.30;99.20
3994;DHT22;2011;48.238;13.948;2023-05-03T11:16:57;18.70;99.90
3994;DHT22;2011;48.238;13.948;2023-05-03T11:19:24;18.80;99.10
3994;DHT22;2011;48.238;13.948;2023-05-03T11:21:52;18.90;98.50
3994;DHT22;2011;48.238;13.948;2023-05-03T11:24:18;18.70;98.10
3994;DHT22;2011;48.238;13.948;2023-05-03T11:26:46;18.70;98.20
3994;DHT22;2011;48.238;13.948;2023-05-03T11:29:15;18.60;98.00
3994;DHT22;2011;48.238;13.948;2023-05-03T11:31:43;18.60;97.80
3994;DHT22;2011;48.238;13.948;2023-05-03T11:34:10;18.70;97.80
3994;DHT22;2011;48.238;13.948;2023-05-03T11:36:38;18.90;97.80
3994;DHT22;2011;48.238;13.948;2023-05-03T11:39:06;19.10;97.50
3994;DHT22;2011;48.238;13.948;2023-05-03T11:41:33;19.10;97.00
3994;DHT22;2011;48.238;13.948;2023-05-03T11:44:00;19.00;96.70
3994;DHT22;2011;48.238;13.948;2023-05-03T11:46:32;19.00;96.60
3994;DHT22;2011;48.238;13.948;2023-05-03T11:49:00;18.80;95.70
3994;DHT22;2011;48.238;13.948;2023-05-03T11:51:28;18.60;95.40
3994;DHT22;2011;48.238;13.948;2023-05-03T11:53:57;18.50;96.50
3994;DHT22;2011;48.238;13.948;2023-05-03T11:56:24;18.50;95.80
3994;DHT22;2011;48.238;13.948;2023-05-03T11:58:52;18.50;95.90
3994;DHT22;2011;48.238;13.948;2023-05-03T12:01:22;18.60;96.30
3994;DHT22;2011;48.238;13.948;2023-05-03T12:03:55;19.00;96.70
3994;DHT22;2011;48.238;13.948;2023-05-03T12:06:22;19.10;95.50
3994;DHT22;2011;48.238;13.948;2023-05-03T12:08:52;19.20;95.20
3994;DHT22;2011;48.238;13.948;2023-05-03T12:11:19;19.20;94.10
3994;DHT22;2011;48.238;13.948;2023-05-03T12:13:55;19.00;93.50
3994;DHT22;2011;48.238;13.948;2023-05-03T12:16:23;19.00;93.70
3994;DHT22;2011;48.238;13.948;2023-05-03T12:18:51;19.30;95.00
3994;DHT22;2011;48.238;13.948;2023-05-03T12:21:21;19.40;94.60
3994;DHT22;2011;48.238;13.948;2023-05-03T12:23:49;19.40;94.30
3994;DHT22;2011;48.238;13.948;2023-05-03T12:26:17;19.20;94.70
3994;DHT22;2011;48.238;13.948;2023-05-03T12:28:45;19.00;95.30
3994;DHT22;2011;48.238;13.948;2023-05-03T12:31:12;18.80;94.90
3994;DHT22;2011;48.238;13.948;2023-05-03T12:33:40;18.80;95.10
3994;DHT22;2011;48.238;13.948;2023-05-03T12:36:07;18.70;95.10
3994;DHT22;2011;48.238;13.948;2023-05-03T12:38:36;18.60;95.50
3994;DHT22;2011;48.238;13.948;2023-05-03T12:41:03;18.60;94.90
3994;DHT22;2011;48.238;13.948;2023-05-03T12:43:30;18.90;95.00
3994;DHT22;2011;48.238;13.948;2023-05-03T12:45:57;19.30;95.30
3994;DHT22;2011;48.238;13.948;2023-05-03T12:48:27;19.70;94.70
3994;DHT22;2011;48.238;13.948;2023-05-03T12:50:55;20.00;94.20
3994;DHT22;2011;48.238;13.948;2023-05-03T12:53:22;20.30;94.30
3994;DHT22;2011;48.238;13.948;2023-05-03T12:55:51;20.60;93.40
3994;DHT22;2011;48.238;13.948;2023-05-03T12:58:19;20.70;92.60
3994;DHT22;2011;48.238;13.948;2023-05-03T13:00:46;20.90;92.40
3994;DHT22;2011;48.238;13.948;2023-05-03T13:03:13;21.00;91.60
3994;DHT22;2011;48.238;13.948;2023-05-03T13:05:40;21.20;91.50
3994;DHT22;2011;48.238;13.948;2023-05-03T13:08:07;21.30;91.70
3994;DHT22;2011;48.238;13.948;2023-05-03T13:10:35;21.50;91.20
3994;DHT22;2011;48.238;13.948;2023-05-03T13:13:04;21.60;91.50
3994;DHT22;2011;48.238;13.948;2023-05-03T13:15:32;21.70;88.80
3994;DHT22;2011;48.238;13.948;2023-05-03T13:18:00;21.60;90.10
3994;DHT22;2011;48.238;13.948;2023-05-03T13:20:29;21.60;90.00
3994;DHT22;2011;48.238;13.948;2023-05-03T13:22:57;21.80;90.10
3994;DHT22;2011;48.238;13.948;2023-05-03T13:25:24;21.90;90.10
3994;DHT22;2011;48.238;13.948;2023-05-03T13:27:51;21.70;88.00
3994;DHT22;2011;48.238;13.948;2023-05-03T13:30:20;21.40;86.90
3994;DHT22;2011;48.238;13.948;2023-05-03T13:32:47;21.20;86.70
3994;DHT22;2011;48.238;13.948;2023-05-03T13:35:15;21.20;87.10
3994;DHT22;2011;48.238;13.948;2023-05-03T13:37:42;21.10;87.20
3994;DHT22;2011;48.238;13.948;2023-05-03T13:40:10;21.00;87.10
3994;DHT22;2011;48.238;13.948;2023-05-03T13:42:39;20.90;85.40
3994;DHT22;2011;48.238;13.948;2023-05-03T13:45:06;20.70;86.90
3994;DHT22;2011;48.238;13.948;2023-05-03T13:47:35;20.60;86.70
3994;DHT22;2011;48.238;13.948;2023-05-03T13:50:02;20.70;85.30
3994;DHT22;2011;48.238;13.948;2023-05-03T13:52:29;20.60;84.20
3994;DHT22;2011;48.238;13.948;2023-05-03T13:54:56;20.40;82.80
3994;DHT22;2011;48.238;13.948;2023-05-03T13:57:25;20.40;85.30
3994;DHT22;2011;48.238;13.948;2023-05-03T13:59:52;20.30;85.40
3994;DHT22;2011;48.238;13.948;2023-05-03T14:02:19;20.20;86.80
3994;DHT22;2011;48.238;13.948;2023-05-03T14:04:47;20.20;84.00
3994;DHT22;2011;48.238;13.948;2023-05-03T14:07:15;20.00;83.20
3994;DHT22;2011;48.238;13.948;2023-05-03T14:09:43;19.90;84.80
3994;DHT22;2011;48.238;13.948;2023-05-03T14:12:10;19.70;83.80
3994;DHT22;2011;48.238;13.948;2023-05-03T14:14:36;19.60;83.60
3994;DHT22;2011;48.238;13.948;2023-05-03T14:17:03;19.50;84.80
3994;DHT22;2011;48.238;13.948;2023-05-03T14:19:33;19.40;85.70
3994;DHT22;2011;48.238;13.948;2023-05-03T14:22:02;19.30;86.30
3994;DHT22;2011;48.238;13.948;2023-05-03T14:24:29;19.20;85.90
3994;DHT22;2011;48.238;13.948;2023-05-03T14:26:57;19.10;87.30
3994;DHT22;2011;48.238;13.948;2023-05-03T14:29:24;19.10;87.20
3994;DHT22;2011;48.238;13.948;2023-05-03T14:31:51;19.00;87.90
3994;DHT22;2011;48.238;13.948;2023-05-03T14:34:18;19.00;88.40
3994;DHT22;2011;48.238;13.948;2023-05-03T14:36:45;18.90;87.70
3994;DHT22;2011;48.238;13.948;2023-05-03T14:39:14;18.80;87.80
3994;DHT22;2011;48.238;13.948;2023-05-03T14:41:40;18.80;88.20
3994;DHT22;2011;48.238;13.948;2023-05-03T14:44:08;18.80;88.50
3994;DHT22;2011;48.238;13.948;2023-05-03T14:46:34;18.70;89.60
3994;DHT22;2011;48.238;13.948;2023-05-03T14:49:01;18.70;90.00
3994;DHT22;2011;48.238;13.948;2023-05-03T14:51:28;18.70;90.30
3994;DHT22;2011;48.238;13.948;2023-05-03T14:53:56;18.60;90.20
3994;DHT22;2011;48.238;13.948;2023-05-03T14:56:25;18.60;90.30
3994;DHT22;2011;48.238;13.948;2023-05-03T14:58:52;18.60;90.40
3994;DHT22;2011;48.238;13.948;2023-05-03T15:01:20;18.50;90.70
3994;DHT22;2011;48.238;13.948;2023-05-03T15:03:47;18.50;90.80
3994;DHT22;2011;48.238;13.948;2023-05-03T15:06:14;18.40;90.40
3994;DHT22;2011;48.238;13.948;2023-05-03T15:08:41;18.40;90.30
3994;DHT22;2011;48.238;13.948;2023-05-03T15:11:09;18.40;90.90
3994;DHT22;2011;48.238;13.948;2023-05-03T15:13:38;18.40;91.00
3994;DHT22;2011;48.238;13.948;2023-05-03T15:16:05;18.40;91.10
3994;DHT22;2011;48.238;13.948;2023-05-03T15:18:32;18.40;91.70
3994;DHT22;2011;48.238;13.948;2023-05-03T15:20:59;18.40;91.80
3994;DHT22;2011;48.238;13.948;2023-05-03T15:23:26;18.40;91.90
3994;DHT22;2011;48.238;13.948;2023-05-03T15:25:53;18.30;92.10
3994;DHT22;2011;48.238;13.948;2023-05-03T15:28:20;18.30;92.30
3994;DHT22;2011;48.238;13.948;2023-05-03T15:30:49;18.30;92.50
3994;DHT22;2011;48.238;13.948;2023-05-03T15:33:16;18.30;93.10
3994;DHT22;2011;48.238;13.948;2023-05-03T15:35:43;18.30;93.20
3994;DHT22;2011;48.238;13.948;2023-05-03T15:38:10;18.30;93.40
3994;DHT22;2011;48.238;13.948;2023-05-03T15:40:37;18.30;93.20
3994;DHT22;2011;48.238;13.948;2023-05-03T15:43:05;18.30;93.00
3994;DHT22;2011;48.238;13.948;2023-05-03T15:45:32;18.20;93.10
3994;DHT22;2011;48.238;13.948;2023-05-03T15:48:00;18.30;93.50
3994;DHT22;2011;48.238;13.948;2023-05-03T15:50:28;18.30;93.50